createdAt,value
2023-02-04T00:04:43.590Z,76.04
2023-02-04T00:10:14.874Z,76.24
2023-02-04T00:15:45.890Z,75.70
2023-02-04T00:21:17.382Z,75.55
2023-02-04T00:26:48.583Z,75.86
2023-02-04T00:32:19.884Z,75.35
2023-02-04T00:37:51.662Z,75.92
2023-02-04T00:43:23.212Z,75.69
2023-02-04T00:48:54.576Z,75.19
2023-02-04T00:54:27.019Z,75.96
2023-02-04T00:59:58.379Z,75.37
2023-02-04T01:05:30.103Z,74.79
2023-02-04T01:11:01.712Z,75.08
2023-02-04T01:16:33.158Z,75.26
2023-02-04T01:22:04.713Z,75.60
2023-02-04T01:27:35.824Z,75.53
2023-02-04T01:33:08.328Z,75.49
2023-02-04T01:38:40.543Z,75.58
2023-02-04T01:44:11.881Z,75.65
2023-02-04T01:49:43.520Z,75.25
2023-02-04T01:55:18.307Z,75.45
2023-02-04T02:00:49.522Z,75.66
2023-02-04T02:06:20.798Z,75.07
2023-02-04T02:11:51.971Z,75.57
2023-02-04T02:17:23.449Z,75.49
2023-02-04T02:23:16.926Z,75.40
2023-02-04T02:28:48.327Z,76.02
2023-02-04T02:34:19.965Z,76.07
2023-02-04T02:39:51.808Z,76.10
2023-02-04T02:45:28.010Z,76.76
2023-02-04T02:50:59.238Z,76.57
2023-02-04T02:56:30.660Z,76.69
2023-02-04T03:02:05.036Z,76.28
2023-02-04T03:07:38.152Z,75.98
2023-02-04T03:13:10.520Z,76.28
2023-02-04T03:18:42.314Z,76.19
2023-02-04T03:24:16.277Z,75.60
2023-02-04T03:29:47.672Z,75.47
2023-02-04T03:35:20.046Z,75.78
2023-02-04T03:40:51.279Z,75.20
2023-02-04T03:46:24.061Z,75.61
2023-02-04T03:51:55.524Z,75.44
2023-02-04T03:57:26.741Z,74.80
2023-02-04T04:02:58.772Z,74.52
2023-02-04T04:08:29.631Z,75.09
2023-02-04T04:14:01.777Z,74.38
2023-02-04T04:19:33.546Z,75.31
2023-02-04T04:25:05.232Z,74.36
2023-02-04T04:30:36.257Z,74.77
2023-02-04T04:36:08.739Z,74.45
2023-02-04T04:41:39.838Z,74.61
2023-02-04T04:47:11.060Z,73.83
2023-02-04T04:52:42.113Z,74.34
2023-02-04T04:58:13.147Z,73.56
2023-02-04T05:03:44.293Z,74.38
2023-02-04T05:09:16.904Z,74.75
2023-02-04T05:14:48.421Z,73.83
2023-02-04T05:21:09.392Z,74.33
2023-02-04T05:26:40.722Z,74.17
2023-02-04T05:32:11.829Z,74.24
2023-02-04T05:37:43.294Z,74.41
2023-02-04T05:43:14.589Z,74.89
2023-02-04T05:48:45.789Z,74.51
2023-02-04T05:54:19.710Z,74.18
2023-02-04T05:59:51.319Z,74.81
2023-02-04T06:05:23.685Z,74.05
2023-02-04T06:10:54.568Z,74.82
2023-02-04T06:16:25.925Z,74.79
2023-02-04T06:21:57.906Z,74.16
2023-02-04T06:27:29.052Z,74.62
2023-02-04T06:33:00.493Z,74.29
2023-02-04T06:38:31.590Z,74.10
2023-02-04T06:44:02.528Z,74.33
2023-02-04T06:49:33.718Z,74.17
2023-02-04T06:55:04.908Z,73.84
2023-02-04T07:00:35.946Z,73.87
2023-02-04T07:06:07.343Z,74.52
2023-02-04T07:11:38.447Z,73.89
2023-02-04T07:17:09.772Z,73.64
2023-02-04T07:22:42.687Z,73.63
2023-02-04T07:28:13.807Z,73.87
2023-02-04T07:33:44.904Z,73.83
2023-02-04T07:39:15.888Z,73.27
2023-02-04T07:44:46.929Z,73.60
2023-02-04T07:50:18.131Z,74.13
2023-02-04T07:55:49.117Z,74.02
2023-02-04T08:01:20.302Z,73.86
2023-02-04T08:06:51.829Z,73.54
2023-02-04T08:12:23.098Z,73.05
2023-02-04T08:17:54.531Z,73.35
2023-02-04T08:23:25.699Z,73.59
2023-02-04T08:28:56.844Z,73.15
2023-02-04T08:34:28.590Z,73.33
2023-02-04T08:40:00.217Z,73.05
2023-02-04T08:45:31.530Z,72.61
2023-02-04T08:51:02.557Z,73.12
2023-02-04T08:56:33.595Z,72.67
2023-02-04T09:02:05.088Z,72.64
2023-02-04T09:07:36.498Z,72.02
2023-02-04T09:13:09.358Z,72.07
2023-02-04T09:18:40.916Z,71.89
2023-02-04T09:24:12.152Z,72.20
2023-02-04T09:29:43.620Z,72.24
2023-02-04T09:35:14.880Z,71.85
2023-02-04T09:40:50.204Z,71.48
2023-02-04T09:46:24.639Z,71.56
2023-02-04T09:51:56.280Z,71.82
2023-02-04T09:57:28.105Z,71.88
2023-02-04T10:03:01.273Z,71.76
2023-02-04T10:08:34.314Z,71.92
2023-02-04T10:14:05.390Z,71.26
2023-02-04T10:19:36.430Z,71.31
2023-02-04T10:25:15.781Z,72.01
2023-02-04T10:30:47.479Z,71.61
2023-02-04T10:36:18.449Z,71.45
2023-02-04T10:41:53.199Z,71.13
2023-02-04T10:47:27.418Z,71.07
2023-02-04T10:53:20.855Z,71.24
2023-02-04T10:58:52.369Z,70.95
2023-02-04T11:04:23.880Z,70.78
2023-02-04T11:09:54.857Z,70.57
2023-02-04T11:15:44.875Z,70.36
2023-02-04T11:21:23.505Z,70.42
2023-02-04T11:27:37.553Z,70.63
2023-02-04T11:33:24.153Z,70.37
2023-02-04T11:38:55.332Z,70.17
2023-02-04T11:44:26.521Z,70.34
2023-02-04T11:50:03.507Z,69.42
2023-02-04T11:55:37.858Z,70.29
2023-02-04T12:01:17.064Z,70.35
2023-02-04T12:06:58.513Z,69.98
2023-02-04T12:12:31.099Z,69.99
2023-02-04T12:18:04.547Z,70.36
2023-02-04T12:23:35.525Z,69.49
2023-02-04T12:29:06.587Z,69.26
2023-02-04T12:34:37.942Z,69.11
2023-02-04T12:40:20.031Z,69.61
2023-02-04T12:45:51.279Z,70.02
2023-02-04T12:51:22.518Z,69.56
2023-02-04T12:56:53.760Z,69.39
2023-02-04T13:02:24.826Z,69.70
2023-02-04T13:07:56.155Z,69.17
2023-02-04T13:13:27.296Z,68.98
2023-02-04T13:18:58.468Z,69.23
2023-02-04T13:24:29.561Z,69.50
2023-02-04T13:30:00.541Z,69.17
2023-02-04T13:35:31.798Z,68.27
2023-02-04T13:41:03.431Z,69.46
2023-02-04T13:46:34.851Z,69.31
2023-02-04T13:52:05.891Z,69.04
2023-02-04T13:57:38.082Z,69.73
2023-02-04T14:03:09.743Z,69.41
2023-02-04T14:08:41.055Z,68.34
2023-02-04T14:14:12.301Z,68.70
2023-02-04T14:19:43.530Z,68.86
2023-02-04T14:25:14.747Z,69.24
2023-02-04T14:30:46.490Z,69.01
2023-02-04T14:36:18.012Z,69.03
2023-02-04T14:41:49.295Z,68.85
2023-02-04T14:47:20.545Z,68.66
2023-02-04T14:52:51.733Z,69.09
2023-02-04T14:58:23.018Z,69.30
2023-02-04T15:03:54.264Z,69.28
2023-02-04T15:09:25.917Z,69.18
2023-02-04T15:14:56.912Z,69.37
2023-02-04T15:20:27.922Z,69.74
2023-02-04T15:25:59.150Z,69.79
2023-02-04T15:31:30.847Z,69.48
2023-02-04T15:37:02.354Z,69.40
2023-02-04T15:42:34.778Z,69.77
2023-02-04T15:48:06.195Z,69.45
2023-02-04T15:53:37.882Z,69.71
2023-02-04T15:59:09.223Z,70.15
2023-02-04T16:04:41.719Z,69.66
2023-02-04T16:10:12.894Z,70.35
2023-02-04T16:15:44.106Z,70.26
2023-02-04T16:21:15.364Z,70.07
2023-02-04T16:26:46.803Z,69.66
2023-02-04T16:32:18.289Z,70.19
2023-02-04T16:37:49.373Z,70.15
2023-02-04T16:43:20.914Z,69.86
2023-02-04T16:48:52.635Z,69.40
2023-02-04T16:54:24.137Z,69.73
2023-02-04T16:59:55.216Z,69.83
2023-02-04T17:05:26.464Z,70.27
2023-02-04T17:11:16.705Z,69.60
2023-02-04T17:16:48.942Z,69.25
2023-02-04T17:22:20.141Z,69.60
2023-02-04T17:27:51.873Z,69.93
2023-02-04T17:33:23.266Z,69.31
2023-02-04T17:38:54.300Z,69.49
2023-02-04T17:44:27.111Z,69.24
2023-02-04T17:50:00.370Z,70.05
2023-02-04T17:55:34.544Z,69.23
2023-02-04T18:01:15.066Z,69.49
2023-02-04T18:06:47.277Z,69.07
2023-02-04T18:12:20.063Z,69.21
2023-02-04T18:17:52.586Z,70.11
2023-02-04T18:23:24.280Z,69.17
2023-02-04T18:28:55.427Z,70.03
2023-02-04T18:34:34.608Z,70.67
2023-02-04T18:40:08.756Z,69.36
2023-02-04T18:45:41.011Z,69.64
2023-02-04T18:51:23.119Z,69.50
2023-02-04T18:56:56.745Z,70.00
2023-02-04T19:02:36.398Z,69.78
2023-02-04T19:08:19.415Z,70.43
2023-02-04T19:13:52.903Z,69.32
2023-02-04T19:19:38.760Z,69.55
2023-02-04T19:25:28.659Z,69.93
2023-02-04T19:31:04.488Z,69.65
2023-02-04T19:36:37.505Z,69.50
2023-02-04T19:42:25.244Z,70.17
2023-02-04T19:47:57.478Z,69.88
2023-02-04T19:53:32.380Z,69.69
2023-02-04T19:59:33.687Z,69.68
2023-02-04T20:05:19.051Z,70.19
2023-02-04T20:10:50.384Z,70.00
2023-02-04T20:16:46.304Z,69.70
2023-02-04T20:22:17.480Z,68.97
2023-02-04T20:27:58.477Z,69.57
2023-02-04T20:33:33.954Z,69.51
2023-02-04T20:39:30.563Z,69.94
2023-02-04T20:45:29.664Z,70.00
2023-02-04T20:51:03.166Z,70.05
2023-02-04T20:56:37.897Z,70.14
2023-02-04T21:02:18.994Z,69.82
2023-02-04T21:07:50.815Z,69.92
2023-02-04T21:13:22.764Z,70.12
2023-02-04T21:18:55.159Z,70.38
2023-02-04T21:24:27.608Z,69.94
2023-02-04T21:29:58.981Z,69.94
2023-02-04T21:35:30.464Z,70.76
2023-02-04T21:41:01.681Z,70.29
2023-02-04T21:46:33.468Z,70.58
2023-02-04T21:52:04.963Z,70.42
2023-02-04T21:57:35.938Z,70.55
2023-02-04T22:03:10.454Z,70.57
2023-02-04T22:08:41.744Z,70.99
2023-02-04T22:14:31.724Z,70.24
2023-02-04T22:20:03.494Z,70.01
2023-02-04T22:25:35.081Z,69.99
2023-02-04T22:31:06.544Z,70.14
2023-02-04T22:36:38.397Z,70.45
2023-02-04T22:42:09.311Z,69.75
2023-02-04T22:47:40.644Z,70.07
2023-02-04T22:53:11.657Z,70.74
2023-02-04T22:58:42.548Z,70.29
2023-02-04T23:04:13.846Z,70.35
2023-02-04T23:09:45.105Z,70.47
2023-02-04T23:15:16.405Z,69.96
2023-02-04T23:20:47.794Z,69.93
2023-02-04T23:26:19.738Z,70.38
2023-02-04T23:31:51.050Z,69.81
2023-02-04T23:37:22.566Z,69.84
2023-02-04T23:42:53.549Z,69.83
2023-02-04T23:48:24.744Z,70.09
2023-02-04T23:53:55.913Z,70.04
2023-02-04T23:59:27.340Z,69.97
